Terminal Aerodrome Forecast
Issued by NWS Omaha/Valley, NE

Home | Current Version | Previous Version | Text Only | Print | Product List | Glossary On
Versions: 1 2 3 4 5 6 7 8 9 10 11 12 13 14 15 16 17 18 19 20 21 22 23 24 25 26 27 28 29 30 31 32 33 34 35 36 37 38 39 40 41 42 43 44 45 46 47 48 49 50
000
FTUS43 KOAX 131315 AAA
TAFOFK
TAF AMD
KOFK 131315Z 1313/1412 28008KT P6SM SKC
     FM131700 33010KT P6SM VCSH BKN060
     FM132000 31007KT P6SM SCT060
     FM140600 30005KT P6SM VCSH BKN070
     FM140900 34007KT P6SM BKN080=

USA.gov is the U.S. government's official web portal to all federal, state and local government web resources and services.